createdAt,value
2023-05-09T00:00:51.371Z,6.59
2023-05-09T00:03:18.116Z,6.63
2023-05-09T00:05:44.825Z,6.56
2023-05-09T00:08:11.514Z,6.70
2023-05-09T00:10:38.137Z,6.63
2023-05-09T00:13:04.847Z,6.55
2023-05-09T00:15:32.138Z,6.63
2023-05-09T00:17:58.831Z,6.48
2023-05-09T00:20:25.575Z,6.50
2023-05-09T00:22:52.457Z,6.50
2023-05-09T00:25:19.111Z,6.35
2023-05-09T00:27:45.978Z,6.45
2023-05-09T00:30:13.168Z,6.41
2023-05-09T00:32:41.790Z,6.29
2023-05-09T00:35:10.252Z,6.34
2023-05-09T00:37:37.167Z,6.44
2023-05-09T00:40:06.698Z,6.38
2023-05-09T00:42:33.850Z,6.38
2023-05-09T00:45:00.588Z,6.33
2023-05-09T00:47:29.219Z,6.47
2023-05-09T00:49:57.189Z,6.38
2023-05-09T00:52:27.130Z,6.26
2023-05-09T00:54:54.986Z,6.35
2023-05-09T00:57:22.540Z,6.40
2023-05-09T00:59:49.790Z,6.42
2023-05-09T01:02:18.051Z,6.27
2023-05-09T01:04:47.964Z,6.35
2023-05-09T01:07:28.319Z,6.43
2023-05-09T01:10:16.621Z,6.44
2023-05-09T01:12:55.341Z,6.45
2023-05-09T01:15:33.025Z,6.44
2023-05-09T01:18:24.586Z,6.40
2023-05-09T01:20:58.559Z,6.32
2023-05-09T01:23:47.108Z,6.33
2023-05-09T01:26:50.983Z,6.38
2023-05-09T01:29:39.565Z,6.38
2023-05-09T01:32:23.204Z,6.21
2023-05-09T01:34:52.215Z,6.20
2023-05-09T01:37:20.167Z,6.29
2023-05-09T01:39:51.784Z,6.29
2023-05-09T01:42:20.746Z,6.19
2023-05-09T01:44:48.056Z,6.17
2023-05-09T01:47:16.706Z,6.19
2023-05-09T01:49:43.809Z,6.19
2023-05-09T01:52:14.174Z,5.95
2023-05-09T01:54:40.897Z,6.25
2023-05-09T01:57:08.460Z,5.99
2023-05-09T01:59:36.062Z,6.33
2023-05-09T02:02:06.952Z,6.32
2023-05-09T02:04:34.217Z,6.09
2023-05-09T02:07:02.051Z,6.24
2023-05-09T02:09:28.699Z,6.17
2023-05-09T02:11:55.477Z,6.31
2023-05-09T02:14:22.285Z,6.17
2023-05-09T02:16:49.103Z,6.20
2023-05-09T02:19:16.984Z,6.15
2023-05-09T02:21:44.049Z,6.24
2023-05-09T02:24:10.798Z,6.10
2023-05-09T02:26:37.581Z,6.04
2023-05-09T02:29:06.522Z,5.86
2023-05-09T02:31:34.189Z,6.22
2023-05-09T02:34:02.826Z,6.20
2023-05-09T02:36:29.622Z,6.35
2023-05-09T02:38:56.306Z,6.40
2023-05-09T02:41:22.996Z,6.34
2023-05-09T02:43:49.619Z,6.37
2023-05-09T02:46:16.409Z,6.26
2023-05-09T02:48:43.409Z,6.32
2023-05-09T02:51:10.105Z,6.43
2023-05-09T02:53:36.778Z,6.43
2023-05-09T02:56:04.081Z,6.44
2023-05-09T02:58:30.750Z,6.26
2023-05-09T03:00:57.480Z,6.31
2023-05-09T03:03:25.600Z,6.41
2023-05-09T03:05:52.293Z,6.35
2023-05-09T03:08:19.039Z,6.63
2023-05-09T03:10:45.764Z,6.62
2023-05-09T03:13:12.496Z,6.47
2023-05-09T03:15:39.309Z,6.49
2023-05-09T03:18:06.281Z,6.64
2023-05-09T03:20:33.113Z,6.70
2023-05-09T03:22:59.805Z,6.71
2023-05-09T03:25:26.546Z,6.56
2023-05-09T03:27:53.132Z,6.79
2023-05-09T03:30:20.111Z,6.89
2023-05-09T03:32:46.893Z,7.05
2023-05-09T03:35:13.828Z,7.06
2023-05-09T03:37:40.737Z,7.06
2023-05-09T03:40:08.634Z,7.28
2023-05-09T03:42:35.398Z,7.75
2023-05-09T03:45:02.085Z,8.64
2023-05-09T03:47:28.821Z,8.36
2023-05-09T03:49:55.569Z,8.15
2023-05-09T03:52:22.273Z,7.51
2023-05-09T03:54:49.151Z,7.62
2023-05-09T03:57:15.984Z,7.68
2023-05-09T03:59:42.602Z,7.40
2023-05-09T04:02:09.312Z,7.35
2023-05-09T04:04:36.018Z,7.58
2023-05-09T04:07:02.945Z,7.47
2023-05-09T04:09:30.614Z,7.15
2023-05-09T04:11:57.326Z,7.21
2023-05-09T04:14:23.990Z,7.46
2023-05-09T04:16:50.737Z,7.39
2023-05-09T04:19:17.586Z,7.22
2023-05-09T04:21:44.350Z,7.10
2023-05-09T04:24:11.193Z,6.96
2023-05-09T04:26:39.090Z,7.03
2023-05-09T04:29:05.993Z,7.21
2023-05-09T04:31:32.877Z,7.09
2023-05-09T04:33:59.720Z,6.89
2023-05-09T04:36:27.680Z,6.86
2023-05-09T04:38:54.419Z,6.95
2023-05-09T04:41:21.578Z,7.27
2023-05-09T04:43:48.338Z,7.18
2023-05-09T04:46:15.330Z,7.06
2023-05-09T04:48:41.987Z,7.28
2023-05-09T04:51:08.781Z,7.55
2023-05-09T04:53:35.639Z,7.74
2023-05-09T04:56:02.698Z,8.62
2023-05-09T04:58:29.287Z,7.95
2023-05-09T05:00:56.255Z,7.83
2023-05-09T05:03:22.980Z,8.28
2023-05-09T05:05:49.712Z,7.89
2023-05-09T05:08:16.427Z,7.81
2023-05-09T05:10:43.095Z,8.06
2023-05-09T05:13:09.913Z,8.15
2023-05-09T05:15:36.726Z,7.85
2023-05-09T05:18:03.538Z,7.86
2023-05-09T05:20:30.211Z,8.37
2023-05-09T05:22:57.830Z,9.14
2023-05-09T05:25:25.542Z,9.11
2023-05-09T05:27:52.232Z,9.37
2023-05-09T05:30:19.136Z,8.95
2023-05-09T05:32:45.949Z,9.01
2023-05-09T05:35:12.971Z,8.66
2023-05-09T05:37:41.091Z,8.54
2023-05-09T05:40:08.853Z,8.26
2023-05-09T05:42:35.537Z,8.76
2023-05-09T05:45:05.136Z,8.75
2023-05-09T05:47:35.925Z,8.72
2023-05-09T05:50:12.001Z,8.67
2023-05-09T05:52:39.778Z,8.84
2023-05-09T05:55:06.956Z,9.19
2023-05-09T05:57:35.393Z,9.10
2023-05-09T06:00:02.341Z,9.01
2023-05-09T06:02:29.071Z,9.32
2023-05-09T06:04:56.152Z,9.70
2023-05-09T06:07:22.986Z,9.95
2023-05-09T06:09:49.626Z,9.88
2023-05-09T06:12:17.252Z,9.52
2023-05-09T06:14:43.941Z,9.18
2023-05-09T06:17:10.689Z,9.21
2023-05-09T06:19:37.790Z,9.34
2023-05-09T06:22:04.609Z,9.84
2023-05-09T06:24:35.609Z,10.20
2023-05-09T06:27:03.159Z,9.76
2023-05-09T06:29:55.732Z,9.60
2023-05-09T06:32:22.542Z,10.03
2023-05-09T06:34:49.298Z,10.03
2023-05-09T06:37:16.097Z,9.95
2023-05-09T06:39:42.780Z,10.20
2023-05-09T06:42:09.932Z,10.32
2023-05-09T06:44:36.625Z,10.08
2023-05-09T06:47:03.371Z,10.52
2023-05-09T06:49:30.025Z,10.79
2023-05-09T06:51:56.704Z,10.77
2023-05-09T06:54:23.612Z,10.70
2023-05-09T06:56:50.553Z,10.45
2023-05-09T06:59:17.534Z,10.19
2023-05-09T07:01:44.609Z,10.24
2023-05-09T07:04:11.396Z,10.62
2023-05-09T07:06:38.198Z,10.16
2023-05-09T07:09:06.433Z,10.57
2023-05-09T07:11:37.091Z,10.97
2023-05-09T07:14:04.231Z,10.73
2023-05-09T07:16:31.465Z,10.47
2023-05-09T07:18:58.159Z,10.32
2023-05-09T07:21:25.056Z,10.64
2023-05-09T07:23:51.857Z,10.96
2023-05-09T07:26:18.619Z,11.22
2023-05-09T07:28:45.273Z,10.86
2023-05-09T07:31:11.965Z,10.55
2023-05-09T07:33:38.804Z,11.10
2023-05-09T07:36:05.703Z,11.27
2023-05-09T07:38:32.414Z,11.10
2023-05-09T07:40:59.223Z,10.92
2023-05-09T07:43:25.872Z,11.10
2023-05-09T07:45:52.764Z,11.10
2023-05-09T07:48:19.667Z,11.13
2023-05-09T07:50:46.516Z,10.87
2023-05-09T07:53:13.135Z,10.97
2023-05-09T07:55:39.819Z,11.55
2023-05-09T07:58:06.546Z,11.46
2023-05-09T08:00:33.251Z,10.96
2023-05-09T08:03:00.190Z,11.12
2023-05-09T08:05:27.034Z,10.94
2023-05-09T08:07:53.657Z,11.27
2023-05-09T08:10:21.969Z,10.70
2023-05-09T08:12:49.187Z,11.35
2023-05-09T08:15:16.303Z,11.68
2023-05-09T08:17:43.229Z,11.77
2023-05-09T08:20:11.414Z,11.85
2023-05-09T08:22:41.826Z,12.09
2023-05-09T08:25:08.735Z,11.78
2023-05-09T08:27:35.365Z,11.69
2023-05-09T08:30:02.146Z,11.74
2023-05-09T08:32:29.112Z,11.65
2023-05-09T08:34:55.879Z,12.37
2023-05-09T08:37:22.590Z,12.11
2023-05-09T08:39:49.322Z,11.97
2023-05-09T08:42:20.157Z,11.96
2023-05-09T08:44:46.887Z,12.17
2023-05-09T08:47:13.700Z,12.19
2023-05-09T08:49:41.562Z,12.38
2023-05-09T08:52:08.390Z,11.95
2023-05-09T08:54:35.278Z,12.02
2023-05-09T08:57:02.144Z,11.83
2023-05-09T08:59:29.007Z,11.17
2023-05-09T09:01:56.080Z,11.02
2023-05-09T09:04:23.236Z,11.24
2023-05-09T09:06:50.350Z,11.61
2023-05-09T09:09:17.602Z,11.66
2023-05-09T09:11:45.041Z,12.37
2023-05-09T09:14:16.690Z,12.50
2023-05-09T09:16:45.147Z,11.93
2023-05-09T09:19:13.954Z,12.31
2023-05-09T09:21:46.882Z,12.58
2023-05-09T09:24:14.447Z,12.14
2023-05-09T09:26:47.274Z,11.80
2023-05-09T09:29:14.608Z,11.72
2023-05-09T09:31:46.269Z,11.73
2023-05-09T09:34:16.953Z,12.37
2023-05-09T09:36:43.704Z,12.13
2023-05-09T09:39:13.971Z,13.22
2023-05-09T09:41:41.439Z,13.59
2023-05-09T09:44:12.507Z,13.56
2023-05-09T09:46:50.849Z,13.21
2023-05-09T09:49:20.285Z,13.75
2023-05-09T09:51:55.242Z,12.33
2023-05-09T09:54:22.343Z,12.50
2023-05-09T09:56:50.895Z,12.81
2023-05-09T09:59:19.144Z,13.08
2023-05-09T10:02:03.441Z,13.02
2023-05-09T10:04:41.542Z,13.32
2023-05-09T10:07:13.797Z,13.58
2023-05-09T10:09:41.681Z,12.64
2023-05-09T10:12:09.266Z,12.61
2023-05-09T10:14:37.805Z,13.21
2023-05-09T10:17:05.759Z,12.71
2023-05-09T10:19:33.134Z,13.08
2023-05-09T10:22:05.152Z,13.00
2023-05-09T10:24:38.458Z,12.86
2023-05-09T10:27:10.247Z,13.05
2023-05-09T10:29:45.245Z,13.23
2023-05-09T10:32:32.422Z,13.15
2023-05-09T10:35:29.275Z,13.10
2023-05-09T10:38:13.415Z,13.60
2023-05-09T10:40:42.173Z,14.11
2023-05-09T10:43:09.046Z,13.93
2023-05-09T10:45:36.122Z,13.86
2023-05-09T10:48:04.681Z,13.93
2023-05-09T10:50:31.750Z,13.26
2023-05-09T10:53:07.991Z,12.80
2023-05-09T10:55:51.019Z,12.85
2023-05-09T10:58:33.667Z,12.83
2023-05-09T11:01:01.948Z,13.44
2023-05-09T11:03:29.961Z,14.33
2023-05-09T11:05:58.459Z,13.61
2023-05-09T11:08:26.384Z,13.95
2023-05-09T11:10:54.557Z,13.10
2023-05-09T11:13:25.641Z,13.43
2023-05-09T11:16:01.676Z,14.08
2023-05-09T11:18:29.304Z,14.00
2023-05-09T11:20:56.812Z,13.63
2023-05-09T11:23:27.408Z,13.19
2023-05-09T11:25:54.321Z,13.27
2023-05-09T11:28:34.257Z,13.19
2023-05-09T11:31:11.135Z,13.29
2023-05-09T11:33:39.072Z,13.09
2023-05-09T11:36:25.624Z,13.78
2023-05-09T11:39:12.622Z,14.51
2023-05-09T11:41:41.980Z,14.37
2023-05-09T11:44:19.029Z,14.56
2023-05-09T11:46:47.485Z,13.86
2023-05-09T11:49:14.886Z,13.68
2023-05-09T11:51:41.777Z,13.89
2023-05-09T11:54:09.063Z,14.26
2023-05-09T11:56:37.861Z,13.66
2023-05-09T11:59:04.719Z,13.57
2023-05-09T12:01:31.577Z,13.04
2023-05-09T12:03:59.432Z,13.36
2023-05-09T12:06:26.439Z,13.82
2023-05-09T12:08:55.778Z,13.79
2023-05-09T12:11:23.942Z,13.39
2023-05-09T12:13:52.478Z,13.05
2023-05-09T12:16:20.418Z,12.97
2023-05-09T12:18:47.891Z,12.78
2023-05-09T12:21:14.989Z,12.75
2023-05-09T12:23:42.178Z,13.14
2023-05-09T12:26:10.062Z,12.68
2023-05-09T12:28:37.664Z,13.36
2023-05-09T12:31:05.747Z,13.03
2023-05-09T12:33:32.639Z,13.44
2023-05-09T12:36:11.547Z,13.81
2023-05-09T12:38:39.256Z,14.01
2023-05-09T12:41:22.543Z,13.52
2023-05-09T12:43:57.466Z,13.74
2023-05-09T12:46:24.616Z,13.90
2023-05-09T12:48:51.874Z,14.15
2023-05-09T12:51:22.891Z,14.54
2023-05-09T12:53:49.836Z,14.02
2023-05-09T12:56:23.013Z,13.66
2023-05-09T12:58:51.883Z,13.30
2023-05-09T13:01:24.065Z,13.16
2023-05-09T13:04:04.434Z,12.42
2023-05-09T13:06:38.288Z,12.15
2023-05-09T13:09:09.388Z,12.26
2023-05-09T13:11:37.817Z,12.47
2023-05-09T13:14:04.942Z,12.77
2023-05-09T13:16:31.831Z,12.30
2023-05-09T13:18:58.620Z,12.88
2023-05-09T13:21:25.595Z,12.74
2023-05-09T13:23:52.577Z,12.63
2023-05-09T13:26:21.845Z,13.01
2023-05-09T13:29:03.597Z,12.86
2023-05-09T13:31:39.996Z,12.85
2023-05-09T13:35:26.436Z,12.84
2023-05-09T13:37:54.239Z,13.50
2023-05-09T13:40:21.316Z,13.20
2023-05-09T13:42:49.357Z,13.24
2023-05-09T13:45:16.298Z,13.15
2023-05-09T13:48:15.885Z,12.80
2023-05-09T13:53:51.064Z,12.27
2023-05-09T13:56:20.149Z,12.85
2023-05-09T13:58:47.057Z,12.90
2023-05-09T14:01:13.771Z,12.97
2023-05-09T14:03:40.732Z,13.13
2023-05-09T14:06:09.453Z,13.21
2023-05-09T14:08:36.417Z,12.92
2023-05-09T14:11:03.104Z,13.04
2023-05-09T14:13:44.891Z,13.05
2023-05-09T14:16:11.928Z,13.33
2023-05-09T14:18:41.275Z,13.33
2023-05-09T14:21:08.179Z,13.30
2023-05-09T14:23:34.915Z,12.68
2023-05-09T14:26:01.627Z,13.39
2023-05-09T14:29:06.609Z,13.07
2023-05-09T14:31:33.565Z,12.26
2023-05-09T14:34:03.022Z,12.07
2023-05-09T14:36:29.835Z,12.36
2023-05-09T14:38:56.799Z,12.53
2023-05-09T14:41:27.086Z,11.97
2023-05-09T14:43:53.924Z,11.97
2023-05-09T14:46:21.318Z,11.59
2023-05-09T14:48:48.504Z,11.87
2023-05-09T14:51:15.236Z,12.11
2023-05-09T14:53:42.151Z,11.98
2023-05-09T14:56:11.402Z,12.00
2023-05-09T14:58:38.316Z,11.93
2023-05-09T15:01:05.130Z,11.94
2023-05-09T15:03:31.999Z,12.03
2023-05-09T15:05:59.348Z,11.99
2023-05-09T15:08:26.236Z,12.12
2023-05-09T15:10:53.178Z,12.32
2023-05-09T15:13:20.066Z,12.13
2023-05-09T15:15:47.333Z,12.10
2023-05-09T15:18:16.645Z,12.14
2023-05-09T15:20:43.611Z,11.99
2023-05-09T15:23:11.870Z,12.04
2023-05-09T15:25:41.423Z,12.10
2023-05-09T15:28:08.126Z,12.10
2023-05-09T15:30:38.180Z,12.02
2023-05-09T15:33:05.196Z,11.99
2023-05-09T15:35:32.101Z,11.95
2023-05-09T15:37:59.339Z,11.88
2023-05-09T15:40:26.199Z,11.77
2023-05-09T15:42:52.948Z,11.71
2023-05-09T15:45:19.853Z,11.78
2023-05-09T15:47:46.609Z,11.75
2023-05-09T15:50:13.802Z,11.56
2023-05-09T15:52:40.924Z,11.54
2023-05-09T15:55:08.819Z,11.59
2023-05-09T15:57:35.591Z,11.64
2023-05-09T16:00:02.271Z,11.48
2023-05-09T16:02:29.343Z,11.43
2023-05-09T16:04:56.195Z,11.44
2023-05-09T16:07:26.163Z,11.42
2023-05-09T16:09:52.777Z,11.34
2023-05-09T16:12:19.405Z,11.46
2023-05-09T16:14:46.069Z,11.50
2023-05-09T16:17:12.770Z,11.57
2023-05-09T16:19:39.491Z,11.48
2023-05-09T16:22:06.234Z,11.33
2023-05-09T16:24:33.103Z,11.32
2023-05-09T16:26:59.791Z,11.26
2023-05-09T16:29:28.619Z,11.27
2023-05-09T16:31:55.503Z,11.45
2023-05-09T16:34:22.306Z,11.52
2023-05-09T16:36:49.023Z,11.48
2023-05-09T16:39:16.186Z,11.76
2023-05-09T16:41:42.941Z,11.68
2023-05-09T16:44:09.641Z,11.35
2023-05-09T16:46:36.509Z,11.10
2023-05-09T16:49:03.295Z,10.98
2023-05-09T16:51:30.663Z,10.83
2023-05-09T16:53:57.479Z,10.82
2023-05-09T16:56:24.237Z,10.84
2023-05-09T16:58:51.773Z,10.72
2023-05-09T17:01:18.486Z,10.68
2023-05-09T17:03:45.448Z,10.61
2023-05-09T17:06:14.903Z,10.48
2023-05-09T17:08:41.942Z,10.50
2023-05-09T17:11:09.455Z,10.56
2023-05-09T17:13:36.300Z,10.46
2023-05-09T17:16:03.126Z,10.44
2023-05-09T17:18:37.506Z,10.36
2023-05-09T17:21:07.552Z,10.21
2023-05-09T17:23:35.526Z,10.19
2023-05-09T17:26:02.189Z,10.05
2023-05-09T17:28:28.859Z,9.98
2023-05-09T17:30:55.660Z,10.01
2023-05-09T17:33:22.378Z,9.89
2023-05-09T17:35:50.166Z,9.98
2023-05-09T17:38:17.438Z,9.97
2023-05-09T17:40:44.580Z,9.87
2023-05-09T17:43:13.185Z,9.79
2023-05-09T17:45:39.872Z,9.81
2023-05-09T17:48:07.276Z,9.62
2023-05-09T17:50:33.970Z,9.69
2023-05-09T17:53:03.733Z,9.61
2023-05-09T17:55:30.439Z,9.57
2023-05-09T17:57:57.077Z,9.55
2023-05-09T18:00:23.828Z,9.55
2023-05-09T18:02:51.715Z,9.48
2023-05-09T18:05:21.716Z,9.57
2023-05-09T18:07:48.369Z,9.46
2023-05-09T18:10:15.442Z,9.37
2023-05-09T18:12:45.201Z,9.29
2023-05-09T18:15:12.158Z,9.36
2023-05-09T18:17:38.957Z,9.36
2023-05-09T18:20:07.107Z,9.38
2023-05-09T18:22:33.758Z,9.48
2023-05-09T18:25:00.990Z,9.40
2023-05-09T18:27:27.672Z,9.32
2023-05-09T18:29:54.308Z,9.34
2023-05-09T18:32:21.963Z,9.26
2023-05-09T18:34:48.643Z,9.24
2023-05-09T18:37:16.999Z,9.20
2023-05-09T18:39:44.065Z,9.17
2023-05-09T18:44:38.798Z,9.11
2023-05-09T18:47:06.637Z,9.06
2023-05-09T18:49:33.517Z,9.14
2023-05-09T18:52:00.268Z,9.01
2023-05-09T18:54:26.935Z,9.01
2023-05-09T18:56:53.845Z,9.02
2023-05-09T18:59:20.552Z,8.95
2023-05-09T19:01:47.278Z,8.82
2023-05-09T19:04:17.244Z,8.87
2023-05-09T19:06:45.139Z,8.71
2023-05-09T19:09:11.968Z,8.70
2023-05-09T19:11:38.593Z,8.52
2023-05-09T19:14:05.376Z,8.56
2023-05-09T19:16:32.122Z,8.55
2023-05-09T19:18:59.101Z,8.66
2023-05-09T19:21:25.756Z,8.65
2023-05-09T19:23:52.592Z,8.59
2023-05-09T19:26:19.992Z,8.54
2023-05-09T19:28:47.129Z,8.29
2023-05-09T19:31:15.059Z,8.44
2023-05-09T19:33:44.207Z,8.49
2023-05-09T19:36:46.118Z,8.49
2023-05-09T19:39:12.782Z,8.60
2023-05-09T19:41:39.625Z,8.32
2023-05-09T19:44:07.297Z,8.35
2023-05-09T19:46:35.383Z,8.35
2023-05-09T19:49:02.523Z,8.22
2023-05-09T19:51:29.709Z,8.24
2023-05-09T19:53:56.410Z,8.18
2023-05-09T19:56:23.408Z,8.26
2023-05-09T19:58:50.459Z,7.77
2023-05-09T20:01:19.187Z,8.04
2023-05-09T20:03:52.736Z,7.83
2023-05-09T20:06:19.593Z,8.11
2023-05-09T20:08:47.140Z,7.99
2023-05-09T20:11:14.787Z,8.09
2023-05-09T20:13:45.086Z,8.13
2023-05-09T20:16:21.561Z,7.51
2023-05-09T20:18:50.705Z,7.72
2023-05-09T20:21:18.740Z,7.76
2023-05-09T20:23:46.089Z,7.54
2023-05-09T20:26:12.954Z,8.02
2023-05-09T20:28:39.818Z,7.40
2023-05-09T20:31:06.593Z,7.59
2023-05-09T20:33:33.319Z,7.22
2023-05-09T20:36:00.799Z,7.56
2023-05-09T20:38:27.615Z,7.41
2023-05-09T20:40:54.152Z,7.66
2023-05-09T20:43:20.818Z,7.65
2023-05-09T20:45:47.502Z,7.88
2023-05-09T20:48:14.701Z,7.68
2023-05-09T20:50:41.355Z,7.80
2023-05-09T20:53:07.994Z,7.80
2023-05-09T20:55:34.938Z,7.72
2023-05-09T20:58:01.518Z,7.75
2023-05-09T21:00:30.932Z,7.81
2023-05-09T21:02:58.747Z,7.92
2023-05-09T21:05:25.667Z,7.91
2023-05-09T21:07:52.425Z,7.92
2023-05-09T21:10:19.636Z,7.80
2023-05-09T21:12:46.276Z,7.78
2023-05-09T21:15:13.885Z,7.79
2023-05-09T21:17:40.791Z,7.78
2023-05-09T21:20:08.594Z,7.70
2023-05-09T21:22:35.207Z,7.51
2023-05-09T21:25:01.823Z,7.64
2023-05-09T21:27:31.397Z,7.59
2023-05-09T21:29:58.343Z,7.66
2023-05-09T21:32:25.222Z,7.71
2023-05-09T21:34:51.937Z,7.68
2023-05-09T21:37:19.363Z,7.65
2023-05-09T21:39:46.224Z,7.66
2023-05-09T21:42:12.871Z,7.56
2023-05-09T21:44:39.713Z,7.42
2023-05-09T21:47:06.486Z,7.29
2023-05-09T21:49:33.389Z,7.46
2023-05-09T21:52:00.129Z,7.34
2023-05-09T21:54:26.857Z,7.20
2023-05-09T21:56:53.408Z,7.17
2023-05-09T21:59:22.255Z,7.22
2023-05-09T22:01:49.587Z,7.42
2023-05-09T22:04:16.341Z,7.32
2023-05-09T22:06:42.945Z,7.31
2023-05-09T22:09:10.406Z,7.27
2023-05-09T22:11:37.095Z,7.29
2023-05-09T22:14:03.748Z,7.26
2023-05-09T22:16:30.456Z,7.34
2023-05-09T22:18:57.127Z,7.28
2023-05-09T22:21:23.810Z,7.23
2023-05-09T22:23:50.500Z,7.14
2023-05-09T22:26:17.167Z,7.10
2023-05-09T22:28:43.892Z,7.11
2023-05-09T22:31:10.615Z,7.09
2023-05-09T22:33:37.211Z,6.93
2023-05-09T22:36:04.177Z,7.12
2023-05-09T22:38:30.921Z,7.21
2023-05-09T22:40:57.541Z,7.14
2023-05-09T22:43:26.812Z,7.13
2023-05-09T22:45:55.480Z,7.26
2023-05-09T22:48:22.145Z,7.17
2023-05-09T22:50:48.798Z,7.17
2023-05-09T22:53:15.795Z,7.13
2023-05-09T22:55:45.470Z,7.15
2023-05-09T22:58:12.154Z,7.10
2023-05-09T23:00:38.811Z,7.00
2023-05-09T23:03:05.846Z,7.02
2023-05-09T23:05:32.645Z,7.31
2023-05-09T23:07:59.292Z,7.26
2023-05-09T23:10:26.003Z,7.15
2023-05-09T23:12:52.738Z,7.35
2023-05-09T23:15:19.523Z,7.34
2023-05-09T23:17:46.217Z,7.25
2023-05-09T23:20:13.078Z,7.15
2023-05-09T23:22:39.726Z,7.32
2023-05-09T23:25:07.119Z,7.30
2023-05-09T23:27:33.882Z,7.20
2023-05-09T23:30:00.529Z,7.28
2023-05-09T23:32:27.328Z,6.86
2023-05-09T23:34:54.011Z,7.25
2023-05-09T23:37:20.668Z,7.07
2023-05-09T23:39:47.289Z,7.12
2023-05-09T23:42:13.939Z,7.22
2023-05-09T23:44:40.576Z,7.26
2023-05-09T23:47:07.307Z,7.25
2023-05-09T23:49:34.097Z,7.25
2023-05-09T23:52:00.704Z,7.27
2023-05-09T23:54:27.385Z,7.24
2023-05-09T23:56:54.273Z,7.26
2023-05-09T23:59:20.919Z,7.16
